sensor_id;sensor_type;location;lat;lon;timestamp;P1;durP1;ratioP1;P2;durP2;ratioP2
4182;SDS011;2105;52.300;9.182;2024-02-21T00:00:15;41.90;;;22.40;;
4182;SDS011;2105;52.300;9.182;2024-02-21T00:02:42;47.73;;;24.70;;
4182;SDS011;2105;52.300;9.182;2024-02-21T00:05:09;44.80;;;24.07;;
4182;SDS011;2105;52.300;9.182;2024-02-21T00:07:36;45.23;;;23.73;;
4182;SDS011;2105;52.300;9.182;2024-02-21T00:10:04;55.60;;;24.87;;
4182;SDS011;2105;52.300;9.182;2024-02-21T00:12:32;49.37;;;24.80;;
4182;SDS011;2105;52.300;9.182;2024-02-21T00:14:59;45.23;;;24.37;;
4182;SDS011;2105;52.300;9.182;2024-02-21T00:17:25;46.93;;;25.47;;
4182;SDS011;2105;52.300;9.182;2024-02-21T00:19:52;49.80;;;24.77;;
4182;SDS011;2105;52.300;9.182;2024-02-21T00:22:19;45.63;;;24.97;;
4182;SDS011;2105;52.300;9.182;2024-02-21T00:24:45;47.43;;;24.40;;
4182;SDS011;2105;52.300;9.182;2024-02-21T00:27:13;48.27;;;26.57;;
4182;SDS011;2105;52.300;9.182;2024-02-21T00:29:40;53.87;;;26.70;;
4182;SDS011;2105;52.300;9.182;2024-02-21T00:32:07;44.27;;;25.87;;
4182;SDS011;2105;52.300;9.182;2024-02-21T00:34:33;38.87;;;25.00;;
4182;SDS011;2105;52.300;9.182;2024-02-21T00:37:01;46.23;;;25.40;;
4182;SDS011;2105;52.300;9.182;2024-02-21T00:39:27;45.73;;;25.50;;
4182;SDS011;2105;52.300;9.182;2024-02-21T00:41:54;38.97;;;24.70;;
4182;SDS011;2105;52.300;9.182;2024-02-21T00:44:22;41.30;;;22.70;;
4182;SDS011;2105;52.300;9.182;2024-02-21T00:46:48;46.03;;;25.27;;
4182;SDS011;2105;52.300;9.182;2024-02-21T00:49:15;53.17;;;26.40;;
4182;SDS011;2105;52.300;9.182;2024-02-21T00:51:42;45.00;;;26.20;;
4182;SDS011;2105;52.300;9.182;2024-02-21T00:54:09;41.97;;;25.60;;
4182;SDS011;2105;52.300;9.182;2024-02-21T00:56:35;48.30;;;25.87;;
4182;SDS011;2105;52.300;9.182;2024-02-21T00:59:02;59.90;;;26.10;;
4182;SDS011;2105;52.300;9.182;2024-02-21T01:01:30;51.30;;;26.17;;
4182;SDS011;2105;52.300;9.182;2024-02-21T01:03:57;50.13;;;27.83;;
4182;SDS011;2105;52.300;9.182;2024-02-21T01:06:23;46.50;;;27.23;;
4182;SDS011;2105;52.300;9.182;2024-02-21T01:08:50;51.50;;;27.03;;
4182;SDS011;2105;52.300;9.182;2024-02-21T01:11:16;41.30;;;25.80;;
4182;SDS011;2105;52.300;9.182;2024-02-21T01:13:43;44.03;;;26.83;;
4182;SDS011;2105;52.300;9.182;2024-02-21T01:16:10;46.37;;;26.10;;
4182;SDS011;2105;52.300;9.182;2024-02-21T01:18:38;43.20;;;24.80;;
4182;SDS011;2105;52.300;9.182;2024-02-21T01:21:05;40.73;;;26.37;;
4182;SDS011;2105;52.300;9.182;2024-02-21T01:23:32;39.97;;;25.17;;
4182;SDS011;2105;52.300;9.182;2024-02-21T01:25:59;42.53;;;25.63;;
4182;SDS011;2105;52.300;9.182;2024-02-21T01:28:26;46.97;;;25.73;;
4182;SDS011;2105;52.300;9.182;2024-02-21T01:30:53;43.73;;;25.53;;
4182;SDS011;2105;52.300;9.182;2024-02-21T01:33:19;41.10;;;24.90;;
4182;SDS011;2105;52.300;9.182;2024-02-21T01:35:47;40.93;;;26.67;;
4182;SDS011;2105;52.300;9.182;2024-02-21T01:38:15;48.07;;;24.80;;
4182;SDS011;2105;52.300;9.182;2024-02-21T01:40:41;41.07;;;25.70;;
4182;SDS011;2105;52.300;9.182;2024-02-21T01:43:15;43.93;;;24.80;;
4182;SDS011;2105;52.300;9.182;2024-02-21T01:45:43;41.30;;;26.50;;
4182;SDS011;2105;52.300;9.182;2024-02-21T01:48:12;43.90;;;25.13;;
4182;SDS011;2105;52.300;9.182;2024-02-21T01:50:39;35.20;;;22.90;;
4182;SDS011;2105;52.300;9.182;2024-02-21T01:53:07;49.27;;;25.60;;
4182;SDS011;2105;52.300;9.182;2024-02-21T01:55:34;35.83;;;24.37;;
4182;SDS011;2105;52.300;9.182;2024-02-21T01:58:01;43.47;;;26.30;;
4182;SDS011;2105;52.300;9.182;2024-02-21T02:00:28;52.00;;;26.87;;
4182;SDS011;2105;52.300;9.182;2024-02-21T02:02:55;39.67;;;24.53;;
4182;SDS011;2105;52.300;9.182;2024-02-21T02:05:22;35.90;;;24.17;;
4182;SDS011;2105;52.300;9.182;2024-02-21T02:07:49;42.63;;;25.83;;
4182;SDS011;2105;52.300;9.182;2024-02-21T02:10:17;44.20;;;23.90;;
4182;SDS011;2105;52.300;9.182;2024-02-21T02:12:44;40.03;;;24.93;;
4182;SDS011;2105;52.300;9.182;2024-02-21T02:15:11;44.53;;;25.27;;
4182;SDS011;2105;52.300;9.182;2024-02-21T02:17:37;40.50;;;25.40;;
4182;SDS011;2105;52.300;9.182;2024-02-21T02:20:04;40.40;;;24.90;;
4182;SDS011;2105;52.300;9.182;2024-02-21T02:22:32;38.10;;;24.90;;
4182;SDS011;2105;52.300;9.182;2024-02-21T02:25:03;38.30;;;24.67;;
4182;SDS011;2105;52.300;9.182;2024-02-21T02:27:30;45.17;;;24.90;;
4182;SDS011;2105;52.300;9.182;2024-02-21T02:29:57;38.57;;;24.50;;
4182;SDS011;2105;52.300;9.182;2024-02-21T02:32:24;39.80;;;25.00;;
4182;SDS011;2105;52.300;9.182;2024-02-21T02:34:50;38.63;;;23.77;;
4182;SDS011;2105;52.300;9.182;2024-02-21T02:37:17;40.03;;;24.93;;
4182;SDS011;2105;52.300;9.182;2024-02-21T02:39:43;37.13;;;23.93;;
4182;SDS011;2105;52.300;9.182;2024-02-21T02:42:12;39.40;;;25.03;;
4182;SDS011;2105;52.300;9.182;2024-02-21T02:44:38;43.23;;;24.20;;
4182;SDS011;2105;52.300;9.182;2024-02-21T02:47:05;33.53;;;24.30;;
4182;SDS011;2105;52.300;9.182;2024-02-21T02:49:31;37.10;;;24.40;;
4182;SDS011;2105;52.300;9.182;2024-02-21T02:51:58;54.97;;;26.30;;
4182;SDS011;2105;52.300;9.182;2024-02-21T02:54:25;33.20;;;23.90;;
4182;SDS011;2105;52.300;9.182;2024-02-21T02:56:52;43.67;;;26.17;;
4182;SDS011;2105;52.300;9.182;2024-02-21T02:59:20;50.40;;;23.83;;
4182;SDS011;2105;52.300;9.182;2024-02-21T03:01:47;40.43;;;27.23;;
4182;SDS011;2105;52.300;9.182;2024-02-21T03:04:14;39.80;;;24.70;;
4182;SDS011;2105;52.300;9.182;2024-02-21T03:06:40;38.00;;;26.80;;
4182;SDS011;2105;52.300;9.182;2024-02-21T03:09:07;45.77;;;26.00;;
4182;SDS011;2105;52.300;9.182;2024-02-21T03:11:34;51.67;;;25.10;;
4182;SDS011;2105;52.300;9.182;2024-02-21T03:14:02;33.67;;;25.00;;
4182;SDS011;2105;52.300;9.182;2024-02-21T03:16:30;39.13;;;25.40;;
4182;SDS011;2105;52.300;9.182;2024-02-21T03:18:57;44.33;;;24.17;;
4182;SDS011;2105;52.300;9.182;2024-02-21T03:21:23;42.90;;;28.17;;
4182;SDS011;2105;52.300;9.182;2024-02-21T03:23:50;41.23;;;24.93;;
4182;SDS011;2105;52.300;9.182;2024-02-21T03:26:17;41.50;;;24.63;;
4182;SDS011;2105;52.300;9.182;2024-02-21T03:28:43;33.17;;;21.27;;
4182;SDS011;2105;52.300;9.182;2024-02-21T03:31:11;46.27;;;26.83;;
4182;SDS011;2105;52.300;9.182;2024-02-21T03:33:40;39.03;;;27.53;;
4182;SDS011;2105;52.300;9.182;2024-02-21T03:36:12;48.00;;;28.43;;
4182;SDS011;2105;52.300;9.182;2024-02-21T03:38:39;44.53;;;27.03;;
4182;SDS011;2105;52.300;9.182;2024-02-21T03:41:06;42.17;;;25.97;;
4182;SDS011;2105;52.300;9.182;2024-02-21T03:43:32;36.50;;;24.90;;
4182;SDS011;2105;52.300;9.182;2024-02-21T03:45:59;44.07;;;26.73;;
4182;SDS011;2105;52.300;9.182;2024-02-21T03:48:26;41.53;;;28.27;;
4182;SDS011;2105;52.300;9.182;2024-02-21T03:50:54;45.63;;;26.37;;
4182;SDS011;2105;52.300;9.182;2024-02-21T03:53:21;41.10;;;25.00;;
4182;SDS011;2105;52.300;9.182;2024-02-21T03:55:47;43.10;;;25.63;;
4182;SDS011;2105;52.300;9.182;2024-02-21T03:58:13;39.13;;;24.80;;
4182;SDS011;2105;52.300;9.182;2024-02-21T04:00:40;39.67;;;25.33;;
4182;SDS011;2105;52.300;9.182;2024-02-21T04:03:06;43.67;;;26.57;;
4182;SDS011;2105;52.300;9.182;2024-02-21T04:05:33;44.40;;;26.93;;
4182;SDS011;2105;52.300;9.182;2024-02-21T04:08:02;39.43;;;26.00;;
4182;SDS011;2105;52.300;9.182;2024-02-21T04:10:30;44.17;;;26.60;;
4182;SDS011;2105;52.300;9.182;2024-02-21T04:12:56;40.10;;;25.90;;
4182;SDS011;2105;52.300;9.182;2024-02-21T04:15:23;42.93;;;26.40;;
4182;SDS011;2105;52.300;9.182;2024-02-21T04:17:50;45.73;;;27.93;;
4182;SDS011;2105;52.300;9.182;2024-02-21T04:20:18;41.80;;;26.03;;
4182;SDS011;2105;52.300;9.182;2024-02-21T04:22:45;43.77;;;26.10;;
4182;SDS011;2105;52.300;9.182;2024-02-21T04:25:13;57.40;;;28.60;;
4182;SDS011;2105;52.300;9.182;2024-02-21T04:27:40;42.83;;;27.30;;
4182;SDS011;2105;52.300;9.182;2024-02-21T04:30:07;37.43;;;22.37;;
4182;SDS011;2105;52.300;9.182;2024-02-21T04:32:35;45.00;;;26.00;;
4182;SDS011;2105;52.300;9.182;2024-02-21T04:35:02;45.07;;;27.87;;
4182;SDS011;2105;52.300;9.182;2024-02-21T04:37:29;35.40;;;25.13;;
4182;SDS011;2105;52.300;9.182;2024-02-21T04:39:55;42.73;;;25.83;;
4182;SDS011;2105;52.300;9.182;2024-02-21T04:42:24;41.90;;;26.70;;
4182;SDS011;2105;52.300;9.182;2024-02-21T04:44:50;41.07;;;26.63;;
4182;SDS011;2105;52.300;9.182;2024-02-21T04:47:18;53.10;;;29.07;;
4182;SDS011;2105;52.300;9.182;2024-02-21T04:49:45;40.47;;;26.97;;
4182;SDS011;2105;52.300;9.182;2024-02-21T04:52:12;39.33;;;26.53;;
4182;SDS011;2105;52.300;9.182;2024-02-21T04:54:39;51.67;;;29.33;;
4182;SDS011;2105;52.300;9.182;2024-02-21T04:57:06;46.43;;;27.93;;
4182;SDS011;2105;52.300;9.182;2024-02-21T04:59:34;41.23;;;26.20;;
4182;SDS011;2105;52.300;9.182;2024-02-21T05:02:01;44.20;;;26.87;;
4182;SDS011;2105;52.300;9.182;2024-02-21T05:04:28;49.23;;;26.23;;
4182;SDS011;2105;52.300;9.182;2024-02-21T05:06:54;39.97;;;27.57;;
4182;SDS011;2105;52.300;9.182;2024-02-21T05:09:21;52.77;;;28.00;;
4182;SDS011;2105;52.300;9.182;2024-02-21T05:11:48;47.37;;;27.33;;
4182;SDS011;2105;52.300;9.182;2024-02-21T05:14:14;42.83;;;27.73;;
4182;SDS011;2105;52.300;9.182;2024-02-21T05:16:42;41.30;;;26.93;;
4182;SDS011;2105;52.300;9.182;2024-02-21T05:19:09;47.77;;;28.60;;
4182;SDS011;2105;52.300;9.182;2024-02-21T05:21:36;43.13;;;28.00;;
4182;SDS011;2105;52.300;9.182;2024-02-21T05:24:03;50.07;;;27.57;;
4182;SDS011;2105;52.300;9.182;2024-02-21T05:26:30;44.97;;;26.73;;
4182;SDS011;2105;52.300;9.182;2024-02-21T05:28:57;39.23;;;23.80;;
4182;SDS011;2105;52.300;9.182;2024-02-21T05:31:24;40.30;;;28.13;;
4182;SDS011;2105;52.300;9.182;2024-02-21T05:33:52;43.83;;;27.77;;
4182;SDS011;2105;52.300;9.182;2024-02-21T05:36:19;44.37;;;27.27;;
4182;SDS011;2105;52.300;9.182;2024-02-21T05:38:45;41.50;;;27.00;;
4182;SDS011;2105;52.300;9.182;2024-02-21T05:41:12;48.13;;;23.80;;
4182;SDS011;2105;52.300;9.182;2024-02-21T05:43:39;40.13;;;26.00;;
4182;SDS011;2105;52.300;9.182;2024-02-21T05:46:06;37.90;;;26.13;;
4182;SDS011;2105;52.300;9.182;2024-02-21T05:48:33;38.43;;;25.10;;
4182;SDS011;2105;52.300;9.182;2024-02-21T05:51:02;47.70;;;26.10;;
4182;SDS011;2105;52.300;9.182;2024-02-21T05:53:29;39.67;;;27.43;;
4182;SDS011;2105;52.300;9.182;2024-02-21T05:55:56;37.07;;;25.53;;
4182;SDS011;2105;52.300;9.182;2024-02-21T05:58:23;46.97;;;26.13;;
4182;SDS011;2105;52.300;9.182;2024-02-21T06:00:49;36.80;;;23.93;;
4182;SDS011;2105;52.300;9.182;2024-02-21T06:03:16;40.97;;;25.93;;
4182;SDS011;2105;52.300;9.182;2024-02-21T06:05:43;40.17;;;27.63;;
4182;SDS011;2105;52.300;9.182;2024-02-21T06:08:11;39.20;;;26.43;;
4182;SDS011;2105;52.300;9.182;2024-02-21T06:10:38;36.87;;;27.23;;
4182;SDS011;2105;52.300;9.182;2024-02-21T06:13:05;42.30;;;27.50;;
4182;SDS011;2105;52.300;9.182;2024-02-21T06:15:31;38.80;;;25.20;;
4182;SDS011;2105;52.300;9.182;2024-02-21T06:17:58;38.53;;;24.53;;
4182;SDS011;2105;52.300;9.182;2024-02-21T06:20:25;42.77;;;27.70;;
4182;SDS011;2105;52.300;9.182;2024-02-21T06:22:51;38.30;;;24.67;;
4182;SDS011;2105;52.300;9.182;2024-02-21T06:25:20;38.30;;;24.50;;
4182;SDS011;2105;52.300;9.182;2024-02-21T06:27:47;35.90;;;25.03;;
4182;SDS011;2105;52.300;9.182;2024-02-21T06:30:13;36.97;;;25.73;;
4182;SDS011;2105;52.300;9.182;2024-02-21T06:32:40;43.10;;;25.83;;
4182;SDS011;2105;52.300;9.182;2024-02-21T06:35:07;44.33;;;25.57;;
4182;SDS011;2105;52.300;9.182;2024-02-21T06:37:33;35.57;;;25.17;;
4182;SDS011;2105;52.300;9.182;2024-02-21T06:42:36;44.27;;;23.80;;
4182;SDS011;2105;52.300;9.182;2024-02-21T06:45:04;35.43;;;24.07;;
4182;SDS011;2105;52.300;9.182;2024-02-21T06:47:33;40.90;;;23.60;;
4182;SDS011;2105;52.300;9.182;2024-02-21T06:49:59;40.10;;;24.20;;
4182;SDS011;2105;52.300;9.182;2024-02-21T06:52:27;34.13;;;23.77;;
4182;SDS011;2105;52.300;9.182;2024-02-21T06:54:54;36.90;;;23.93;;
4182;SDS011;2105;52.300;9.182;2024-02-21T06:57:20;39.80;;;21.93;;
4182;SDS011;2105;52.300;9.182;2024-02-21T06:59:48;38.37;;;24.07;;
4182;SDS011;2105;52.300;9.182;2024-02-21T07:02:17;33.20;;;24.30;;
4182;SDS011;2105;52.300;9.182;2024-02-21T07:04:44;41.73;;;24.80;;
4182;SDS011;2105;52.300;9.182;2024-02-21T07:07:10;38.63;;;24.03;;
4182;SDS011;2105;52.300;9.182;2024-02-21T07:09:43;34.20;;;24.83;;
4182;SDS011;2105;52.300;9.182;2024-02-21T07:12:11;37.03;;;23.90;;
4182;SDS011;2105;52.300;9.182;2024-02-21T07:14:38;37.60;;;24.67;;
4182;SDS011;2105;52.300;9.182;2024-02-21T07:17:06;36.13;;;24.80;;
4182;SDS011;2105;52.300;9.182;2024-02-21T07:19:32;31.93;;;23.87;;
4182;SDS011;2105;52.300;9.182;2024-02-21T07:22:00;36.57;;;24.90;;
4182;SDS011;2105;52.300;9.182;2024-02-21T07:24:27;36.40;;;24.90;;
4182;SDS011;2105;52.300;9.182;2024-02-21T07:26:54;45.50;;;25.20;;
4182;SDS011;2105;52.300;9.182;2024-02-21T07:29:21;41.30;;;25.77;;
4182;SDS011;2105;52.300;9.182;2024-02-21T07:31:48;30.40;;;22.63;;
4182;SDS011;2105;52.300;9.182;2024-02-21T07:34:18;39.37;;;24.70;;
4182;SDS011;2105;52.300;9.182;2024-02-21T07:36:44;67.73;;;26.57;;
4182;SDS011;2105;52.300;9.182;2024-02-21T07:39:11;43.83;;;25.30;;
4182;SDS011;2105;52.300;9.182;2024-02-21T07:41:38;87.13;;;27.00;;
4182;SDS011;2105;52.300;9.182;2024-02-21T07:44:06;36.40;;;23.50;;
4182;SDS011;2105;52.300;9.182;2024-02-21T07:46:33;37.33;;;24.33;;
4182;SDS011;2105;52.300;9.182;2024-02-21T07:49:00;38.03;;;24.70;;
4182;SDS011;2105;52.300;9.182;2024-02-21T07:51:28;35.10;;;23.93;;
4182;SDS011;2105;52.300;9.182;2024-02-21T07:53:55;38.43;;;23.50;;
4182;SDS011;2105;52.300;9.182;2024-02-21T07:56:22;38.37;;;23.90;;
4182;SDS011;2105;52.300;9.182;2024-02-21T07:58:48;30.23;;;24.30;;
4182;SDS011;2105;52.300;9.182;2024-02-21T08:01:18;38.23;;;22.43;;
4182;SDS011;2105;52.300;9.182;2024-02-21T08:03:45;39.20;;;22.27;;
4182;SDS011;2105;52.300;9.182;2024-02-21T08:06:12;34.63;;;22.37;;
4182;SDS011;2105;52.300;9.182;2024-02-21T08:08:41;27.93;;;21.10;;
4182;SDS011;2105;52.300;9.182;2024-02-21T08:11:09;37.73;;;21.97;;
4182;SDS011;2105;52.300;9.182;2024-02-21T08:13:36;32.07;;;20.13;;
4182;SDS011;2105;52.300;9.182;2024-02-21T08:16:03;29.50;;;19.03;;
4182;SDS011;2105;52.300;9.182;2024-02-21T08:18:30;31.07;;;19.57;;
4182;SDS011;2105;52.300;9.182;2024-02-21T08:20:56;23.03;;;18.93;;
4182;SDS011;2105;52.300;9.182;2024-02-21T08:23:23;24.37;;;18.97;;
4182;SDS011;2105;52.300;9.182;2024-02-21T08:25:52;31.93;;;19.17;;
4182;SDS011;2105;52.300;9.182;2024-02-21T08:28:19;32.60;;;21.03;;
4182;SDS011;2105;52.300;9.182;2024-02-21T08:30:46;27.97;;;17.77;;
4182;SDS011;2105;52.300;9.182;2024-02-21T08:33:13;31.83;;;17.83;;
4182;SDS011;2105;52.300;9.182;2024-02-21T08:35:41;36.23;;;18.53;;
4182;SDS011;2105;52.300;9.182;2024-02-21T08:38:08;25.97;;;18.00;;
4182;SDS011;2105;52.300;9.182;2024-02-21T08:40:35;40.27;;;18.13;;
4182;SDS011;2105;52.300;9.182;2024-02-21T08:43:03;26.90;;;17.90;;
4182;SDS011;2105;52.300;9.182;2024-02-21T08:45:30;26.23;;;18.20;;
4182;SDS011;2105;52.300;9.182;2024-02-21T08:47:56;35.00;;;18.07;;
4182;SDS011;2105;52.300;9.182;2024-02-21T08:50:23;23.03;;;16.87;;
4182;SDS011;2105;52.300;9.182;2024-02-21T08:52:50;22.23;;;16.80;;
4182;SDS011;2105;52.300;9.182;2024-02-21T08:55:17;21.30;;;17.17;;
4182;SDS011;2105;52.300;9.182;2024-02-21T08:57:43;26.83;;;17.83;;
4182;SDS011;2105;52.300;9.182;2024-02-21T09:00:13;26.23;;;17.53;;
4182;SDS011;2105;52.300;9.182;2024-02-21T09:02:41;24.47;;;17.10;;
4182;SDS011;2105;52.300;9.182;2024-02-21T09:05:08;27.80;;;17.57;;
4182;SDS011;2105;52.300;9.182;2024-02-21T09:07:35;22.50;;;16.70;;
4182;SDS011;2105;52.300;9.182;2024-02-21T09:10:02;23.43;;;17.40;;
4182;SDS011;2105;52.300;9.182;2024-02-21T09:12:31;23.33;;;17.10;;
4182;SDS011;2105;52.300;9.182;2024-02-21T09:14:58;25.63;;;16.90;;
4182;SDS011;2105;52.300;9.182;2024-02-21T09:17:26;19.80;;;15.93;;
4182;SDS011;2105;52.300;9.182;2024-02-21T09:19:54;25.47;;;16.80;;
4182;SDS011;2105;52.300;9.182;2024-02-21T09:22:28;19.60;;;15.90;;
4182;SDS011;2105;52.300;9.182;2024-02-21T09:24:56;31.30;;;16.47;;
4182;SDS011;2105;52.300;9.182;2024-02-21T09:27:23;23.90;;;16.10;;
4182;SDS011;2105;52.300;9.182;2024-02-21T09:29:49;24.63;;;15.00;;
4182;SDS011;2105;52.300;9.182;2024-02-21T09:32:17;27.30;;;17.00;;
4182;SDS011;2105;52.300;9.182;2024-02-21T09:34:45;26.97;;;16.30;;
4182;SDS011;2105;52.300;9.182;2024-02-21T09:37:12;17.73;;;15.63;;
4182;SDS011;2105;52.300;9.182;2024-02-21T09:39:38;20.90;;;16.40;;
4182;SDS011;2105;52.300;9.182;2024-02-21T09:42:06;19.73;;;16.50;;
4182;SDS011;2105;52.300;9.182;2024-02-21T09:44:36;27.50;;;16.33;;
4182;SDS011;2105;52.300;9.182;2024-02-21T09:47:04;20.83;;;16.17;;
4182;SDS011;2105;52.300;9.182;2024-02-21T09:49:36;21.00;;;16.13;;
4182;SDS011;2105;52.300;9.182;2024-02-21T09:52:05;19.50;;;16.37;;
4182;SDS011;2105;52.300;9.182;2024-02-21T09:54:33;21.50;;;16.70;;
4182;SDS011;2105;52.300;9.182;2024-02-21T09:57:00;22.23;;;17.80;;
4182;SDS011;2105;52.300;9.182;2024-02-21T09:59:27;19.40;;;17.30;;
4182;SDS011;2105;52.300;9.182;2024-02-21T10:01:56;20.27;;;17.53;;
4182;SDS011;2105;52.300;9.182;2024-02-21T10:04:25;19.73;;;17.70;;
4182;SDS011;2105;52.300;9.182;2024-02-21T10:06:53;22.10;;;18.43;;
4182;SDS011;2105;52.300;9.182;2024-02-21T10:09:22;21.83;;;18.57;;
4182;SDS011;2105;52.300;9.182;2024-02-21T10:11:49;23.23;;;18.77;;
4182;SDS011;2105;52.300;9.182;2024-02-21T10:14:16;19.97;;;16.37;;
4182;SDS011;2105;52.300;9.182;2024-02-21T10:16:43;21.13;;;18.00;;
4182;SDS011;2105;52.300;9.182;2024-02-21T10:19:20;19.03;;;17.07;;
4182;SDS011;2105;52.300;9.182;2024-02-21T10:21:59;24.17;;;16.40;;
4182;SDS011;2105;52.300;9.182;2024-02-21T10:24:29;18.67;;;16.67;;
4182;SDS011;2105;52.300;9.182;2024-02-21T10:27:01;22.67;;;16.73;;
4182;SDS011;2105;52.300;9.182;2024-02-21T10:29:28;20.83;;;16.60;;
4182;SDS011;2105;52.300;9.182;2024-02-21T10:32:03;20.13;;;16.80;;
4182;SDS011;2105;52.300;9.182;2024-02-21T10:34:31;18.73;;;16.83;;
4182;SDS011;2105;52.300;9.182;2024-02-21T10:36:59;23.97;;;17.20;;
4182;SDS011;2105;52.300;9.182;2024-02-21T10:39:29;18.40;;;16.40;;
4182;SDS011;2105;52.300;9.182;2024-02-21T10:41:58;19.23;;;16.90;;
4182;SDS011;2105;52.300;9.182;2024-02-21T10:44:29;19.10;;;17.37;;
4182;SDS011;2105;52.300;9.182;2024-02-21T10:46:56;18.63;;;16.70;;
4182;SDS011;2105;52.300;9.182;2024-02-21T10:49:24;18.50;;;16.47;;
4182;SDS011;2105;52.300;9.182;2024-02-21T10:51:53;18.20;;;16.40;;
4182;SDS011;2105;52.300;9.182;2024-02-21T10:54:28;17.97;;;16.13;;
4182;SDS011;2105;52.300;9.182;2024-02-21T10:57:05;20.60;;;16.60;;
4182;SDS011;2105;52.300;9.182;2024-02-21T10:59:34;17.67;;;16.00;;
4182;SDS011;2105;52.300;9.182;2024-02-21T11:02:05;18.03;;;16.20;;
4182;SDS011;2105;52.300;9.182;2024-02-21T11:04:31;18.20;;;16.20;;
4182;SDS011;2105;52.300;9.182;2024-02-21T11:07:01;17.33;;;15.73;;
4182;SDS011;2105;52.300;9.182;2024-02-21T11:09:30;17.80;;;16.40;;
4182;SDS011;2105;52.300;9.182;2024-02-21T11:11:59;17.90;;;15.93;;
4182;SDS011;2105;52.300;9.182;2024-02-21T11:14:28;16.30;;;15.10;;
4182;SDS011;2105;52.300;9.182;2024-02-21T11:16:57;19.97;;;15.50;;
4182;SDS011;2105;52.300;9.182;2024-02-21T11:19:25;18.70;;;16.70;;
4182;SDS011;2105;52.300;9.182;2024-02-21T11:21:53;17.50;;;15.90;;
4182;SDS011;2105;52.300;9.182;2024-02-21T11:24:28;18.17;;;16.27;;
4182;SDS011;2105;52.300;9.182;2024-02-21T11:26:55;17.60;;;16.10;;
4182;SDS011;2105;52.300;9.182;2024-02-21T11:29:24;18.07;;;16.47;;
4182;SDS011;2105;52.300;9.182;2024-02-21T11:31:51;18.03;;;16.20;;
4182;SDS011;2105;52.300;9.182;2024-02-21T11:34:19;17.70;;;16.20;;
4182;SDS011;2105;52.300;9.182;2024-02-21T11:36:46;17.73;;;16.00;;
4182;SDS011;2105;52.300;9.182;2024-02-21T11:39:18;18.63;;;17.03;;
4182;SDS011;2105;52.300;9.182;2024-02-21T11:41:47;19.63;;;17.67;;
4182;SDS011;2105;52.300;9.182;2024-02-21T11:44:14;17.80;;;16.43;;
4182;SDS011;2105;52.300;9.182;2024-02-21T11:46:42;18.03;;;16.43;;
4182;SDS011;2105;52.300;9.182;2024-02-21T11:49:09;18.97;;;16.83;;
4182;SDS011;2105;52.300;9.182;2024-02-21T11:51:36;21.00;;;16.67;;
4182;SDS011;2105;52.300;9.182;2024-02-21T11:54:03;18.67;;;16.70;;
4182;SDS011;2105;52.300;9.182;2024-02-21T11:56:32;17.40;;;15.90;;
4182;SDS011;2105;52.300;9.182;2024-02-21T11:58:59;18.87;;;17.03;;
4182;SDS011;2105;52.300;9.182;2024-02-21T12:01:25;19.77;;;17.73;;
4182;SDS011;2105;52.300;9.182;2024-02-21T12:03:54;21.07;;;17.73;;
4182;SDS011;2105;52.300;9.182;2024-02-21T12:06:21;19.70;;;17.83;;
4182;SDS011;2105;52.300;9.182;2024-02-21T12:08:48;20.90;;;18.77;;
4182;SDS011;2105;52.300;9.182;2024-02-21T12:11:15;21.67;;;18.20;;
4182;SDS011;2105;52.300;9.182;2024-02-21T12:13:44;22.60;;;18.83;;
4182;SDS011;2105;52.300;9.182;2024-02-21T12:16:12;21.90;;;18.30;;
4182;SDS011;2105;52.300;9.182;2024-02-21T12:18:43;24.10;;;18.50;;
4182;SDS011;2105;52.300;9.182;2024-02-21T12:21:12;23.17;;;17.70;;
4182;SDS011;2105;52.300;9.182;2024-02-21T12:23:39;20.80;;;18.80;;
4182;SDS011;2105;52.300;9.182;2024-02-21T12:26:06;22.10;;;18.50;;
4182;SDS011;2105;52.300;9.182;2024-02-21T12:28:34;21.97;;;19.60;;
4182;SDS011;2105;52.300;9.182;2024-02-21T12:31:00;20.63;;;18.60;;
4182;SDS011;2105;52.300;9.182;2024-02-21T12:33:29;21.50;;;19.40;;
4182;SDS011;2105;52.300;9.182;2024-02-21T12:35:56;21.67;;;19.50;;
4182;SDS011;2105;52.300;9.182;2024-02-21T12:38:24;20.57;;;18.40;;
4182;SDS011;2105;52.300;9.182;2024-02-21T12:40:50;23.13;;;19.60;;
4182;SDS011;2105;52.300;9.182;2024-02-21T12:45:45;21.77;;;19.27;;
4182;SDS011;2105;52.300;9.182;2024-02-21T12:48:13;23.23;;;20.03;;
4182;SDS011;2105;52.300;9.182;2024-02-21T12:50:40;21.10;;;19.10;;
4182;SDS011;2105;52.300;9.182;2024-02-21T12:53:14;22.37;;;20.07;;
4182;SDS011;2105;52.300;9.182;2024-02-21T12:55:42;21.40;;;18.80;;
4182;SDS011;2105;52.300;9.182;2024-02-21T12:58:09;22.20;;;20.00;;
4182;SDS011;2105;52.300;9.182;2024-02-21T13:00:36;24.23;;;19.90;;
4182;SDS011;2105;52.300;9.182;2024-02-21T13:03:03;21.73;;;19.73;;
4182;SDS011;2105;52.300;9.182;2024-02-21T13:05:30;21.73;;;19.40;;
4182;SDS011;2105;52.300;9.182;2024-02-21T13:07:57;21.97;;;19.73;;
4182;SDS011;2105;52.300;9.182;2024-02-21T13:10:23;22.97;;;19.50;;
4182;SDS011;2105;52.300;9.182;2024-02-21T13:12:51;21.13;;;19.10;;
4182;SDS011;2105;52.300;9.182;2024-02-21T13:15:19;20.23;;;18.40;;
4182;SDS011;2105;52.300;9.182;2024-02-21T13:17:46;20.83;;;19.00;;
4182;SDS011;2105;52.300;9.182;2024-02-21T13:20:13;21.23;;;19.03;;
4182;SDS011;2105;52.300;9.182;2024-02-21T13:22:39;21.33;;;18.17;;
4182;SDS011;2105;52.300;9.182;2024-02-21T13:25:06;20.07;;;18.10;;
4182;SDS011;2105;52.300;9.182;2024-02-21T13:27:33;20.03;;;17.97;;
4182;SDS011;2105;52.300;9.182;2024-02-21T13:30:01;19.93;;;18.00;;
4182;SDS011;2105;52.300;9.182;2024-02-21T13:32:30;19.13;;;17.57;;
4182;SDS011;2105;52.300;9.182;2024-02-21T13:34:57;18.77;;;16.77;;
4182;SDS011;2105;52.300;9.182;2024-02-21T13:37:26;19.43;;;17.47;;
4182;SDS011;2105;52.300;9.182;2024-02-21T13:39:53;18.17;;;16.47;;
4182;SDS011;2105;52.300;9.182;2024-02-21T13:42:21;22.03;;;17.33;;
4182;SDS011;2105;52.300;9.182;2024-02-21T13:44:48;19.37;;;16.97;;
4182;SDS011;2105;52.300;9.182;2024-02-21T13:47:16;18.47;;;16.97;;
4182;SDS011;2105;52.300;9.182;2024-02-21T13:49:43;18.33;;;16.40;;
4182;SDS011;2105;52.300;9.182;2024-02-21T13:52:10;17.90;;;16.10;;
4182;SDS011;2105;52.300;9.182;2024-02-21T13:54:36;17.43;;;15.93;;
4182;SDS011;2105;52.300;9.182;2024-02-21T13:57:03;17.83;;;15.80;;
4182;SDS011;2105;52.300;9.182;2024-02-21T13:59:30;17.20;;;15.50;;
4182;SDS011;2105;52.300;9.182;2024-02-21T14:01:58;17.77;;;16.00;;
4182;SDS011;2105;52.300;9.182;2024-02-21T14:04:26;17.70;;;15.80;;
4182;SDS011;2105;52.300;9.182;2024-02-21T14:06:55;17.87;;;16.07;;
4182;SDS011;2105;52.300;9.182;2024-02-21T14:09:21;17.80;;;16.17;;
4182;SDS011;2105;52.300;9.182;2024-02-21T14:11:48;23.10;;;16.40;;
4182;SDS011;2105;52.300;9.182;2024-02-21T14:14:15;18.00;;;16.40;;
4182;SDS011;2105;52.300;9.182;2024-02-21T14:16:41;18.80;;;16.77;;
4182;SDS011;2105;52.300;9.182;2024-02-21T14:19:08;18.67;;;16.73;;
4182;SDS011;2105;52.300;9.182;2024-02-21T14:21:38;17.87;;;16.27;;
4182;SDS011;2105;52.300;9.182;2024-02-21T14:24:04;20.70;;;16.50;;
4182;SDS011;2105;52.300;9.182;2024-02-21T14:26:31;18.37;;;16.53;;
4182;SDS011;2105;52.300;9.182;2024-02-21T14:28:58;18.80;;;16.83;;
4182;SDS011;2105;52.300;9.182;2024-02-21T14:31:25;17.90;;;16.20;;
4182;SDS011;2105;52.300;9.182;2024-02-21T14:33:51;18.00;;;16.30;;
4182;SDS011;2105;52.300;9.182;2024-02-21T14:36:18;19.90;;;17.80;;
4182;SDS011;2105;52.300;9.182;2024-02-21T14:38:46;18.63;;;16.83;;
4182;SDS011;2105;52.300;9.182;2024-02-21T14:41:14;18.33;;;16.40;;
4182;SDS011;2105;52.300;9.182;2024-02-21T14:43:41;18.67;;;16.70;;
4182;SDS011;2105;52.300;9.182;2024-02-21T14:46:08;17.67;;;16.17;;
4182;SDS011;2105;52.300;9.182;2024-02-21T14:48:37;17.80;;;16.10;;
4182;SDS011;2105;52.300;9.182;2024-02-21T14:51:04;17.37;;;15.57;;
4182;SDS011;2105;52.300;9.182;2024-02-21T14:53:31;19.90;;;16.17;;